New London, Iowa
Current Conditions -  °F | °C
As of 3:55 PM on Friday 24 Oct 2014 (Local Time) from KMPZ Reporting Station
Broken Clouds Broken Clouds  
Wind Chill: 62°   Ceiling: 900
Heat Index: 62°   Visibility: 10mi
Dew Point: 56°   Wind: 14mph
Humidity: 81%   Direction: 190°S
Pressure: 29.94"   Gusts: 18mph
Location:  40.93°N, 91.4°W
Report Text: KMPZ 242055Z AUTO 19012G16KT 10SM BKN009 17/13 A2994 RMK AO2 T01660133
Loading
Personal Weather Stations






























Interactive Weather Map
Tropical Storm Tracking
New forecast layout! Learn more

10-Day Weather Forecast

Advertisements
Track Severe Weather on mobile